Time;durP1;ratioP1;P1;durP2;ratioP2;P2;SDS_P1;SDS_P2;PMS_P1;PMS_P2;Temp;Humidity;BMP_temperature;BMP_pressure;BME280_temperature;BME280_humidity;BME280_pressure;Samples;Min_cycle;Max_cycle;Signal;HPM_P1;HPM_P2
2022/09/19 00:01:13;;;;;;;10.53;1.80;;;11.20;99.90;;;;;;5135275;27;20204;-89
2022/09/19 00:03:41;;;;;;;5.93;2.03;;;11.10;99.90;;;;;;5135111;27;20644;-90
2022/09/19 00:06:10;;;;;;;11.30;1.73;;;11.10;99.90;;;;;;5135188;27;20209;-90
2022/09/19 00:08:37;;;;;;;7.73;2.20;;;11.00;99.90;;;;;;5135090;27;20201;-91
2022/09/19 00:11:07;;;;;;;7.80;1.90;;;11.00;99.90;;;;;;5135519;27;20204;-89
2022/09/19 00:13:36;;;;;;;10.63;2.07;;;10.90;99.90;;;;;;5135000;27;20744;-91
2022/09/19 00:16:04;;;;;;;5.77;1.90;;;10.80;99.90;;;;;;5135137;27;20207;-91
2022/09/19 00:18:32;;;;;;;7.27;1.90;;;10.80;99.90;;;;;;5135555;27;20197;-90
2022/09/19 00:21:00;;;;;;;6.93;1.83;;;10.70;99.90;;;;;;5134934;27;20212;-89
2022/09/19 00:26:17;;;;;;;10.10;2.10;;;10.70;99.90;;;;;;5134684;28;20239;-90
2022/09/19 00:28:46;;;;;;;2.33;1.30;;;10.60;99.90;;;;;;5135200;28;20211;-92
2022/09/19 00:31:17;;;;;;;5.73;1.70;;;10.60;99.90;;;;;;5135355;28;20252;-90
2022/09/19 00:33:46;;;;;;;6.27;1.57;;;10.50;99.90;;;;;;5134883;28;20288;-93
2022/09/19 00:36:13;;;;;;;5.77;2.30;;;10.50;99.90;;;;;;5133792;28;20675;-92
2022/09/19 00:38:40;;;;;;;10.30;2.27;;;10.50;99.90;;;;;;5134733;27;20207;-92
2022/09/19 00:41:07;;;;;;;6.33;1.80;;;10.50;99.90;;;;;;5139290;27;20207;-92
2022/09/19 00:43:48;;;;;;;6.53;1.70;;;10.40;99.90;;;;;;5138993;27;20179;-91
2022/09/19 00:46:15;;;;;;;7.70;1.50;;;10.50;99.90;;;;;;5139366;27;20210;-92
2022/09/19 00:48:44;;;;;;;3.73;1.23;;;10.40;99.90;;;;;;5138925;27;20192;-93
2022/09/19 00:51:18;;;;;;;4.23;1.90;;;10.40;99.90;;;;;;5139155;27;20675;-92
2022/09/19 00:53:46;;;;;;;7.43;1.47;;;10.30;99.90;;;;;;5138587;27;20232;-93
2022/09/19 00:56:15;;;;;;;10.07;1.93;;;10.40;99.90;;;;;;5138827;27;20656;-92
2022/09/19 00:58:44;;;;;;;8.97;2.10;;;10.30;99.90;;;;;;5138973;27;20234;-92
2022/09/19 01:01:13;;;;;;;6.03;1.57;;;10.30;99.90;;;;;;5138677;27;20296;-92
2022/09/19 01:03:40;;;;;;;7.63;1.57;;;10.30;99.90;;;;;;5138590;27;20619;-93
2022/09/19 01:06:23;;;;;;;9.13;1.50;;;10.30;99.90;;;;;;5138813;27;20218;-92
2022/09/19 01:09:05;;;;;;;9.25;2.03;;;10.30;99.90;;;;;;5138305;27;20427;-92
2022/09/19 01:11:56;;;;;;;8.07;1.77;;;10.30;99.90;;;;;;5138327;27;20207;-92
2022/09/19 01:14:31;;;;;;;7.67;1.67;;;10.30;99.90;;;;;;5138988;27;20535;-93
2022/09/19 01:17:06;;;;;;;9.10;1.63;;;10.20;99.90;;;;;;5138379;27;20203;-92
2022/09/19 01:20:13;;;;;;;7.80;2.10;;;10.20;99.90;;;;;;5138713;27;20278;-90
2022/09/19 01:22:56;;;;;;;8.00;1.67;;;10.20;99.90;;;;;;5137952;27;20204;-92
2022/09/19 01:25:31;;;;;;;8.03;1.60;;;10.20;99.90;;;;;;5138340;27;20211;-92
2022/09/19 01:28:14;;;;;;;5.33;1.50;;;10.30;99.90;;;;;;5138625;27;20191;-93
2022/09/19 01:30:48;;;;;;;5.90;1.63;;;10.30;99.90;;;;;;5138072;27;20562;-93
2022/09/19 01:33:18;;;;;;;6.90;2.00;;;10.30;99.90;;;;;;5140252;27;20428;-88
2022/09/19 01:35:50;;;;;;;9.40;2.00;;;10.40;99.90;;;;;;5140062;27;20678;-90
2022/09/19 01:38:21;;;;;;;9.63;1.90;;;10.30;99.90;;;;;;5140367;27;20200;-87
2022/09/19 01:40:50;;;;;;;6.47;1.57;;;10.30;99.90;;;;;;5138901;27;20286;-86
2022/09/19 01:43:19;;;;;;;5.53;1.50;;;10.30;99.90;;;;;;5138445;27;20212;-89
2022/09/19 01:45:47;;;;;;;6.10;1.30;;;10.30;99.90;;;;;;5137711;27;20207;-86
2022/09/19 01:48:19;;;;;;;9.10;1.40;;;10.40;99.90;;;;;;5138297;27;20291;-92
2022/09/19 01:51:20;;;;;;;7.20;1.50;;;10.50;99.90;;;;;;5137615;27;20204;-92
2022/09/19 01:54:16;;;;;;;7.10;2.20;;;10.50;99.90;;;;;;5132521;27;20226;-93
2022/09/19 01:56:53;;;;;;;4.80;1.30;;;10.50;99.90;;;;;;5138208;27;20224;-93
2022/09/19 01:59:36;;;;;;;2.00;1.20;;;10.50;99.90;;;;;;5138253;27;20211;-93
2022/09/19 02:02:15;;;;;;;6.30;2.00;;;10.40;99.90;;;;;;5139088;27;20188;-87
2022/09/19 02:04:49;;;;;;;6.27;1.63;;;10.40;99.90;;;;;;5140492;27;20188;-88
2022/09/19 02:07:27;;;;;;;5.67;1.40;;;10.30;99.90;;;;;;5141594;27;20229;-87
2022/09/19 02:10:00;;;;;;;5.83;1.50;;;10.30;99.90;;;;;;5140678;27;20566;-89
2022/09/19 02:12:35;;;;;;;7.03;1.40;;;10.30;99.90;;;;;;5139905;27;20234;-89
2022/09/19 02:15:10;;;;;;;10.10;1.30;;;10.30;99.90;;;;;;5141768;27;20203;-90
2022/09/19 02:17:45;;;;;;;8.70;1.90;;;10.30;99.90;;;;;;5142696;27;20210;-88
2022/09/19 02:20:17;;;;;;;7.53;1.70;;;10.30;99.90;;;;;;5138511;27;20224;-87
2022/09/19 02:22:53;;;;;;;7.53;2.15;;;10.40;99.90;;;;;;5139783;27;20428;-91
2022/09/19 02:25:24;;;;;;;3.93;1.40;;;10.50;99.90;;;;;;5140384;27;20204;-90
2022/09/19 02:27:56;;;;;;;8.20;1.40;;;10.50;99.90;;;;;;5140731;27;20233;-88
2022/09/19 02:30:25;;;;;;;5.53;1.50;;;10.60;99.90;;;;;;5145558;27;20208;-88
2022/09/19 02:32:53;;;;;;;5.57;1.73;;;10.50;99.90;;;;;;5140399;27;20228;-86
2022/09/19 02:35:23;;;;;;;8.23;1.80;;;10.50;99.90;;;;;;5147177;27;20270;-89
2022/09/19 02:37:55;;;;;;;8.43;1.97;;;10.50;99.90;;;;;;5141955;27;20208;-90
2022/09/19 02:40:28;;;;;;;8.50;1.97;;;10.50;99.90;;;;;;5140125;27;20229;-91
2022/09/19 02:43:03;;;;;;;7.83;1.53;;;10.60;99.90;;;;;;5140708;27;20193;-88
2022/09/19 02:45:36;;;;;;;9.33;1.73;;;10.60;99.90;;;;;;5139461;27;20741;-85
2022/09/19 02:48:10;;;;;;;4.83;1.70;;;10.50;99.90;;;;;;5141654;27;20210;-87
2022/09/19 02:50:41;;;;;;;6.40;1.80;;;10.40;99.90;;;;;;5138757;27;20203;-89
2022/09/19 02:53:13;;;;;;;10.47;2.50;;;10.40;99.90;;;;;;5140450;27;20302;-89
2022/09/19 02:55:46;;;;;;;6.80;1.83;;;10.30;99.90;;;;;;5137662;27;20211;-89
2022/09/19 02:58:15;;;;;;;6.47;1.80;;;10.30;99.90;;;;;;5138547;27;20224;-88
2022/09/19 03:00:52;;;;;;;9.40;1.67;;;10.30;99.90;;;;;;5138965;27;20228;-88
2022/09/19 03:06:17;;;;;;;8.97;2.10;;;10.40;99.90;;;;;;5142992;27;20682;-87
2022/09/19 03:08:48;;;;;;;7.67;2.07;;;10.40;99.90;;;;;;5139804;27;20208;-87
2022/09/19 03:11:19;;;;;;;8.03;2.10;;;10.40;99.90;;;;;;5136650;27;20284;-87
2022/09/19 03:13:46;;;;;;;5.30;1.40;;;10.40;99.90;;;;;;5137205;27;20303;-88
2022/09/19 03:16:18;;;;;;;9.20;2.00;;;10.40;99.90;;;;;;5136698;27;20188;-89
2022/09/19 03:18:48;;;;;;;6.17;1.57;;;10.40;99.90;;;;;;5142876;27;20656;-92
2022/09/19 03:21:21;;;;;;;9.57;2.10;;;10.40;99.90;;;;;;5136587;27;20188;-93
2022/09/19 03:23:50;;;;;;;10.83;1.93;;;10.40;99.90;;;;;;5136604;27;20188;-93
2022/09/19 03:26:20;;;;;;;10.53;2.00;;;10.40;99.90;;;;;;5137178;27;20200;-93
2022/09/19 03:28:54;;;;;;;5.77;1.87;;;10.30;99.90;;;;;;5146922;27;20188;-92
2022/09/19 03:31:25;;;;;;;7.83;1.83;;;10.40;99.90;;;;;;5146287;27;20728;-93
2022/09/19 03:33:55;;;;;;;6.97;1.80;;;10.40;99.90;;;;;;5144873;27;20212;-93
2022/09/19 03:36:26;;;;;;;11.43;2.10;;;10.50;99.90;;;;;;5139316;27;20500;-93
2022/09/19 03:39:01;;;;;;;9.27;2.10;;;10.40;99.90;;;;;;5137449;27;20188;-93
2022/09/19 03:41:30;;;;;;;11.77;1.80;;;10.40;99.90;;;;;;5138545;27;20286;-92
2022/09/19 03:43:59;;;;;;;7.33;1.97;;;10.30;99.90;;;;;;5136903;27;20252;-92
2022/09/19 03:46:30;;;;;;;9.17;2.03;;;10.20;99.90;;;;;;5136687;27;20572;-92
2022/09/19 03:49:02;;;;;;;11.40;2.40;;;10.30;99.90;;;;;;5136070;27;20188;-93
2022/09/19 03:51:31;;;;;;;9.97;2.20;;;10.30;99.90;;;;;;5136199;27;20283;-93
2022/09/19 03:54:04;;;;;;;6.43;2.23;;;10.30;99.90;;;;;;5135642;27;20219;-93
2022/09/19 03:56:33;;;;;;;4.93;1.73;;;10.30;99.90;;;;;;5136279;27;20235;-92
2022/09/19 03:59:05;;;;;;;7.70;1.83;;;10.30;99.90;;;;;;5135976;27;20206;-93
2022/09/19 04:01:33;;;;;;;7.20;2.10;;;10.20;99.90;;;;;;5135714;27;20373;-90
2022/09/19 04:04:01;;;;;;;4.03;1.60;;;10.20;99.90;;;;;;5137066;27;20211;-87
2022/09/19 04:06:29;;;;;;;9.30;2.17;;;10.10;99.90;;;;;;5140676;27;20229;-87
2022/09/19 04:08:56;;;;;;;7.23;1.63;;;10.20;99.90;;;;;;5136271;27;20205;-86
2022/09/19 04:11:23;;;;;;;9.63;2.10;;;10.10;99.90;;;;;;5135303;27;20200;-87
2022/09/19 04:13:51;;;;;;;7.73;1.97;;;10.20;99.90;;;;;;5133808;27;20690;-84
2022/09/19 04:16:18;;;;;;;8.00;2.30;;;10.20;99.90;;;;;;5134789;27;20282;-86
2022/09/19 04:18:50;;;;;;;6.93;2.07;;;10.30;99.90;;;;;;5134635;27;20216;-86
2022/09/19 04:21:17;;;;;;;7.87;2.27;;;10.30;99.90;;;;;;5135779;27;20202;-86
2022/09/19 04:23:46;;;;;;;8.33;2.37;;;10.30;99.90;;;;;;5134658;27;20241;-86
2022/09/19 04:26:13;;;;;;;8.47;2.47;;;10.20;99.90;;;;;;5139980;27;20202;-85
2022/09/19 04:28:41;;;;;;;6.83;2.07;;;10.30;99.90;;;;;;5136426;28;20191;-86
2022/09/19 04:31:12;;;;;;;6.93;1.83;;;10.40;99.90;;;;;;5137713;28;20656;-88
2022/09/19 04:33:40;;;;;;;8.30;2.03;;;10.40;99.90;;;;;;5138708;28;20634;-88
2022/09/19 04:36:08;;;;;;;5.90;2.20;;;10.60;99.90;;;;;;5135841;28;20203;-87
2022/09/19 04:38:36;;;;;;;6.07;2.13;;;10.60;99.90;;;;;;5136757;27;20200;-85
2022/09/19 04:41:03;;;;;;;9.20;2.20;;;10.80;99.90;;;;;;5133986;28;20200;-85
2022/09/19 04:43:32;;;;;;;7.80;2.27;;;10.70;99.90;;;;;;5134848;28;20184;-86
2022/09/19 04:46:06;;;;;;;9.00;2.17;;;10.80;99.90;;;;;;5134324;28;20236;-86
2022/09/19 04:48:33;;;;;;;10.83;2.43;;;10.90;99.90;;;;;;5134554;28;20217;-86
2022/09/19 04:50:59;;;;;;;9.67;2.27;;;10.90;99.90;;;;;;5134910;28;20189;-83
2022/09/19 04:53:30;;;;;;;9.20;3.53;;;10.90;99.90;;;;;;5134235;28;20426;-86
2022/09/19 04:55:57;;;;;;;10.37;2.87;;;11.10;99.90;;;;;;5134813;28;20208;-87
2022/09/19 04:58:24;;;;;;;9.63;2.50;;;11.20;99.90;;;;;;5133780;28;20197;-86
2022/09/19 05:00:53;;;;;;;7.70;2.70;;;11.10;99.90;;;;;;5134054;28;20196;-86
2022/09/19 05:03:22;;;;;;;4.73;1.97;;;11.00;99.90;;;;;;5133685;28;20244;-87
2022/09/19 05:05:51;;;;;;;9.53;4.63;;;11.10;99.90;;;;;;5134086;28;20240;-88
2022/09/19 05:08:25;;;;;;;7.03;2.73;;;11.10;99.90;;;;;;5133973;28;20613;-86
2022/09/19 05:11:01;;;;;;;8.40;1.93;;;11.20;99.90;;;;;;5135548;28;20203;-90
2022/09/19 05:13:31;;;;;;;9.53;2.70;;;11.20;99.90;;;;;;5140160;28;20212;-90
2022/09/19 05:16:01;;;;;;;8.63;2.23;;;11.20;99.90;;;;;;5136769;28;20193;-88
2022/09/19 05:18:33;;;;;;;7.20;2.22;;;11.20;99.90;;;;;;5135939;28;20424;-89
2022/09/19 05:21:04;;;;;;;5.63;1.93;;;11.20;99.90;;;;;;5134711;28;20254;-87
2022/09/19 05:23:33;;;;;;;6.70;2.33;;;11.30;99.90;;;;;;5134548;28;20200;-90
2022/09/19 05:26:10;;;;;;;9.37;2.30;;;11.40;99.90;;;;;;5137404;27;20190;-88
2022/09/19 05:28:38;;;;;;;4.87;1.83;;;11.40;99.90;;;;;;5137682;27;20188;-85
2022/09/19 05:31:07;;;;;;;8.93;2.40;;;11.40;99.90;;;;;;5137926;27;20200;-84
2022/09/19 05:33:35;;;;;;;7.30;2.17;;;11.40;99.90;;;;;;5138456;27;20228;-89
2022/09/19 05:36:03;;;;;;;8.20;1.90;;;11.40;99.90;;;;;;5138752;27;20303;-90
2022/09/19 05:38:32;;;;;;;6.77;2.23;;;11.30;99.90;;;;;;5137344;27;20213;-85
2022/09/19 05:41:01;;;;;;;6.83;2.20;;;11.30;99.90;;;;;;5137238;27;20223;-84
2022/09/19 05:43:29;;;;;;;5.27;2.23;;;11.30;99.90;;;;;;5137817;27;20204;-83
2022/09/19 05:45:58;;;;;;;7.63;2.07;;;11.30;99.90;;;;;;5137603;27;20249;-84
2022/09/19 05:48:25;;;;;;;10.17;2.40;;;11.20;99.90;;;;;;5137623;27;20192;-86
2022/09/19 05:50:53;;;;;;;7.70;1.97;;;11.20;99.90;;;;;;5137182;27;20270;-85
2022/09/19 05:56:08;;;;;;;7.93;2.27;;;11.10;99.90;;;;;;5136627;27;20207;-86
2022/09/19 05:58:36;;;;;;;5.03;2.20;;;11.20;99.90;;;;;;5137029;27;20228;-86
2022/09/19 06:01:07;;;;;;;5.97;1.80;;;11.20;99.90;;;;;;5137226;27;20201;-85
2022/09/19 06:03:34;;;;;;;7.10;2.27;;;11.30;99.90;;;;;;5136927;27;20284;-86
2022/09/19 06:06:02;;;;;;;8.60;2.30;;;11.30;99.90;;;;;;5137371;27;20220;-85
2022/09/19 06:08:30;;;;;;;10.57;2.10;;;11.40;99.90;;;;;;5134046;27;20190;-91
2022/09/19 06:11:01;;;;;;;7.37;2.20;;;11.40;99.90;;;;;;5130924;27;20208;-86
2022/09/19 06:14:13;;;;;;;8.70;2.53;;;11.40;99.90;;;;;;5125023;27;20199;-85
2022/09/19 06:16:17;;;;;;;8.53;2.33;;;11.40;99.90;;;;;;5124680;27;20202;-87
2022/09/19 06:18:43;;;;;;;8.80;2.33;;;11.40;99.90;;;;;;5124466;27;20221;-86
2022/09/19 06:21:16;;;;;;;5.63;2.17;;;11.50;99.90;;;;;;5134145;27;20572;-88
2022/09/19 06:23:46;;;;;;;10.30;2.40;;;11.60;99.90;;;;;;5137405;27;20205;-88
2022/09/19 06:26:13;;;;;;;8.43;2.47;;;11.70;99.90;;;;;;5136667;27;20201;-87
2022/09/19 06:28:40;;;;;;;6.20;2.30;;;11.70;99.90;;;;;;5135988;27;20300;-87
2022/09/19 06:31:08;;;;;;;8.07;2.60;;;11.80;99.90;;;;;;5133282;27;20197;-84
2022/09/19 06:33:37;;;;;;;9.57;2.67;;;12.00;99.90;;;;;;5136674;27;20244;-84
2022/09/19 06:36:05;;;;;;;10.43;2.70;;;12.10;99.90;;;;;;5136372;27;20638;-84
2022/09/19 06:38:32;;;;;;;7.87;2.60;;;12.10;99.90;;;;;;5136341;27;20197;-86
2022/09/19 06:41:07;;;;;;;8.77;2.67;;;12.10;99.90;;;;;;5136726;27;20209;-85
2022/09/19 06:43:37;;;;;;;9.70;3.00;;;12.10;99.90;;;;;;5136449;27;20197;-85
2022/09/19 06:46:10;;;;;;;7.93;2.53;;;12.00;99.90;;;;;;5136683;27;20205;-87
2022/09/19 06:48:38;;;;;;;7.60;2.17;;;11.90;99.90;;;;;;5136426;27;20205;-86
2022/09/19 06:51:06;;;;;;;12.57;2.67;;;11.80;99.90;;;;;;5136104;27;20210;-85
2022/09/19 06:53:34;;;;;;;7.07;2.10;;;11.70;99.90;;;;;;5136187;27;20205;-85
2022/09/19 06:56:01;;;;;;;9.77;2.90;;;11.70;99.90;;;;;;5136112;27;20209;-86
2022/09/19 06:58:34;;;;;;;8.20;2.60;;;11.80;99.90;;;;;;5136711;27;20199;-86
2022/09/19 07:01:02;;;;;;;19.13;3.60;;;11.90;99.90;;;;;;5136344;27;20193;-89
2022/09/19 07:03:29;;;;;;;11.00;3.28;;;11.80;99.90;;;;;;5135908;27;20484;-86
2022/09/19 07:05:59;;;;;;;12.90;3.40;;;11.80;99.90;;;;;;5135531;27;20186;-87
2022/09/19 07:08:32;;;;;;;8.73;2.67;;;11.80;99.90;;;;;;5135552;27;20212;-87
2022/09/19 07:10:59;;;;;;;6.80;2.67;;;11.80;99.90;;;;;;5135662;27;20201;-91
2022/09/19 07:13:26;;;;;;;5.90;2.63;;;11.80;99.90;;;;;;5135722;27;20757;-86
2022/09/19 07:15:54;;;;;;;6.83;2.37;;;11.90;99.90;;;;;;5135366;27;20255;-89
2022/09/19 07:18:21;;;;;;;7.03;2.60;;;12.00;99.90;;;;;;5135898;27;20237;-87
2022/09/19 07:20:50;;;;;;;6.83;2.33;;;12.10;99.90;;;;;;5137384;27;20209;-92
2022/09/19 07:23:22;;;;;;;10.43;2.60;;;12.30;99.90;;;;;;5136331;27;20202;-91
2022/09/19 07:25:49;;;;;;;7.50;2.30;;;12.40;99.90;;;;;;5128792;27;20212;-87
2022/09/19 07:28:19;;;;;;;6.33;2.43;;;12.60;99.90;;;;;;5122677;27;20207;-85
2022/09/19 07:30:47;;;;;;;6.33;2.83;;;12.70;99.90;;;;;;5120579;27;20654;-88
2022/09/19 07:33:15;;;;;;;10.10;2.63;;;12.90;99.90;;;;;;5121486;27;20195;-93
2022/09/19 07:35:42;;;;;;;6.97;2.20;;;13.00;99.90;;;;;;5114366;28;20230;-89
2022/09/19 07:38:13;;;;;;;2.50;1.60;;;13.00;99.90;;;;;;5114558;28;20204;-91
2022/09/19 07:40:42;;;;;;;7.73;2.17;;;13.10;99.90;;;;;;5114611;28;20209;-87
2022/09/19 07:43:13;;;;;;;8.20;3.23;;;13.10;99.90;;;;;;5113913;28;20248;-86
2022/09/19 07:45:44;;;;;;;8.93;2.77;;;13.10;99.90;;;;;;5118834;27;20197;-87
2022/09/19 07:48:11;;;;;;;8.33;2.30;;;13.10;99.90;;;;;;5120702;27;20686;-85
2022/09/19 07:50:38;;;;;;;7.40;3.00;;;13.20;99.90;;;;;;5123173;27;20207;-86
2022/09/19 07:53:06;;;;;;;9.20;2.50;;;13.30;99.90;;;;;;5133534;27;20213;-90
2022/09/19 07:55:35;;;;;;;9.15;3.00;;;13.30;99.90;;;;;;5133179;27;20941;-87
2022/09/19 07:58:04;;;;;;;7.53;2.53;;;13.50;99.90;;;;;;5134703;27;20223;-88
2022/09/19 08:00:33;;;;;;;9.87;2.57;;;13.50;99.90;;;;;;5134324;27;20195;-88
2022/09/19 08:03:02;;;;;;;12.20;3.10;;;13.40;99.90;;;;;;5135247;27;20231;-92
2022/09/19 08:05:34;;;;;;;11.43;3.10;;;13.50;99.90;;;;;;5134337;27;20218;-90
2022/09/19 08:08:01;;;;;;;6.77;2.63;;;13.60;99.90;;;;;;5133589;27;20730;-86
2022/09/19 08:10:30;;;;;;;11.00;2.57;;;13.60;99.90;;;;;;5133701;27;20567;-87
2022/09/19 08:12:59;;;;;;;9.27;2.47;;;13.70;99.90;;;;;;5134391;27;20231;-87
2022/09/19 08:15:27;;;;;;;11.50;3.53;;;13.90;99.90;;;;;;5133601;27;20698;-87
2022/09/19 08:17:58;;;;;;;6.17;2.43;;;14.10;99.90;;;;;;5126504;27;20200;-87
2022/09/19 08:20:26;;;;;;;4.80;2.57;;;14.10;99.90;;;;;;5130338;27;20202;-87
2022/09/19 08:22:56;;;;;;;11.20;3.58;;;14.10;99.90;;;;;;5133459;27;20849;-85
2022/09/19 08:25:23;;;;;;;6.47;2.90;;;14.10;99.90;;;;;;5134732;27;20208;-88
2022/09/19 08:27:51;;;;;;;6.90;2.70;;;14.30;99.90;;;;;;5134523;28;20211;-90
2022/09/19 08:30:18;;;;;;;9.53;2.20;;;14.60;99.90;;;;;;5133216;28;20204;-84
2022/09/19 08:32:47;;;;;;;7.90;2.23;;;14.80;99.90;;;;;;5125980;28;20219;-84
2022/09/19 08:35:15;;;;;;;6.57;2.40;;;14.90;99.90;;;;;;5134346;28;20255;-84
2022/09/19 08:37:42;;;;;;;12.40;2.40;;;15.00;99.90;;;;;;5133588;28;20210;-84
2022/09/19 08:40:16;;;;;;;6.77;2.90;;;15.10;99.90;;;;;;5133619;28;20587;-85
2022/09/19 08:42:49;;;;;;;8.87;2.13;;;15.10;99.90;;;;;;5134239;27;20210;-84
2022/09/19 08:45:24;;;;;;;7.83;2.10;;;15.10;99.90;;;;;;5133909;28;20193;-84
2022/09/19 08:47:53;;;;;;;6.37;1.73;;;15.40;99.90;;;;;;5134079;28;20190;-88
2022/09/19 08:50:24;;;;;;;6.53;2.47;;;15.60;99.90;;;;;;5134151;28;20217;-88
2022/09/19 08:52:55;;;;;;;6.43;2.13;;;15.90;99.90;;;;;;5135456;28;20222;-87
2022/09/19 08:55:24;;;;;;;6.37;2.03;;;15.80;99.90;;;;;;5135244;28;20715;-86
2022/09/19 08:57:57;;;;;;;10.33;1.90;;;15.80;99.90;;;;;;5134611;28;20224;-86
2022/09/19 09:00:26;;;;;;;6.97;1.70;;;15.70;99.90;;;;;;5136853;27;20239;-88
2022/09/19 09:02:59;;;;;;;5.07;2.00;;;15.60;99.90;;;;;;5139019;27;20194;-86
2022/09/19 09:05:40;;;;;;;7.17;2.00;;;15.60;99.90;;;;;;5140799;27;20202;-84
2022/09/19 09:08:13;;;;;;;10.50;2.60;;;15.70;99.90;;;;;;5139579;27;20199;-85
2022/09/19 09:10:54;;;;;;;10.03;2.13;;;15.70;99.90;;;;;;5139275;27;20211;-86
2022/09/19 09:13:35;;;;;;;9.13;2.40;;;15.80;99.90;;;;;;5140911;27;20199;-85
2022/09/19 09:16:11;;;;;;;6.47;1.83;;;15.90;99.90;;;;;;5143380;27;20636;-83
2022/09/19 09:18:59;;;;;;;9.37;2.27;;;15.90;99.90;;;;;;5139637;27;20202;-85
2022/09/19 09:21:35;;;;;;;7.77;1.80;;;15.80;99.90;;;;;;5140001;27;20205;-84
2022/09/19 09:24:08;;;;;;;5.50;2.03;;;16.10;99.90;;;;;;5138103;27;20218;-85
2022/09/19 09:26:40;;;;;;;5.97;1.97;;;16.20;99.90;;;;;;5137413;27;20577;-83
2022/09/19 09:29:15;;;;;;;6.43;1.87;;;16.20;99.90;;;;;;5139241;27;20233;-87
2022/09/19 09:31:46;;;;;;;8.07;2.30;;;16.10;99.90;;;;;;5139450;27;20681;-89
2022/09/19 09:34:22;;;;;;;6.13;1.60;;;16.00;99.90;;;;;;5138922;27;20200;-86
2022/09/19 09:36:55;;;;;;;4.90;1.30;;;15.80;99.90;;;;;;5139801;27;20203;-87
2022/09/19 09:39:26;;;;;;;6.00;1.27;;;15.70;99.90;;;;;;5138091;27;20651;-85
2022/09/19 09:41:58;;;;;;;6.60;1.90;;;15.80;99.90;;;;;;5137321;27;20206;-84
2022/09/19 09:44:43;;;;;;;3.70;1.27;;;15.90;99.90;;;;;;5125533;27;20650;-84
2022/09/19 09:47:24;;;;;;;5.13;1.50;;;16.20;99.90;;;;;;5126224;27;20189;-86
2022/09/19 09:49:57;;;;;;;6.23;1.60;;;15.90;99.90;;;;;;5125017;27;20199;-84
2022/09/19 09:52:35;;;;;;;10.30;1.93;;;16.00;99.90;;;;;;5124830;27;20648;-85
2022/09/19 09:58:31;;;;;;;4.00;1.13;;;16.20;99.90;;;;;;5122892;27;20344;-89
2022/09/19 10:04:12;;;;;;;7.40;1.70;;;16.30;99.90;;;;;;5134542;27;20202;-90
2022/09/19 10:06:52;;;;;;;4.97;1.57;;;16.40;99.90;;;;;;5121297;27;20293;-90
2022/09/19 10:09:24;;;;;;;7.33;1.90;;;16.30;99.90;;;;;;5123547;27;20192;-93
2022/09/19 10:11:56;;;;;;;6.60;1.83;;;16.30;99.90;;;;;;5126408;27;20197;-85
2022/09/19 10:14:28;;;;;;;4.53;1.90;;;16.10;99.90;;;;;;5132212;27;20251;-87
2022/09/19 10:17:01;;;;;;;6.00;1.67;;;15.70;99.90;;;;;;5115347;28;20231;-86
2022/09/19 10:19:32;;;;;;;3.93;1.80;;;15.30;99.90;;;;;;5116265;28;20204;-85
2022/09/19 10:22:00;;;;;;;7.97;1.47;;;15.10;99.90;;;;;;5115984;28;20209;-86
2022/09/19 10:24:47;;;;;;;9.43;1.90;;;15.10;99.90;;;;;;5119136;27;20213;-86
2022/09/19 10:27:16;;;;;;;4.23;1.63;;;15.10;99.90;;;;;;5121707;27;20205;-86
2022/09/19 10:29:57;;;;;;;8.47;2.60;;;15.20;99.90;;;;;;5115514;28;20650;-84
2022/09/19 10:32:27;;;;;;;5.00;1.70;;;15.20;99.90;;;;;;5118062;27;20207;-83
2022/09/19 10:34:54;;;;;;;6.60;2.00;;;15.10;99.90;;;;;;5119193;28;20220;-88
2022/09/19 10:37:27;;;;;;;9.37;1.97;;;15.10;99.90;;;;;;5128712;27;20200;-88
2022/09/19 10:40:01;;;;;;;6.07;1.90;;;15.10;99.90;;;;;;5119928;27;20197;-86
2022/09/19 10:42:37;;;;;;;7.80;1.97;;;15.00;99.90;;;;;;5122491;28;20212;-89
2022/09/19 10:45:17;;;;;;;7.93;1.53;;;15.20;99.90;;;;;;5132433;27;20196;-89
2022/09/19 10:47:47;;;;;;;3.43;1.10;;;15.40;99.90;;;;;;5116986;28;20216;-88
2022/09/19 10:50:18;;;;;;;4.30;1.47;;;15.30;99.90;;;;;;5117855;28;20222;-87
2022/09/19 10:52:50;;;;;;;4.30;1.40;;;15.40;99.90;;;;;;5116325;28;20199;-83
2022/09/19 10:55:21;;;;;;;5.10;1.57;;;15.60;99.90;;;;;;5132778;27;20802;-83
2022/09/19 10:58:01;;;;;;;7.30;1.80;;;15.80;99.90;;;;;;5135528;27;20229;-87
2022/09/19 11:00:31;;;;;;;6.57;1.33;;;15.90;99.90;;;;;;5131817;27;20236;-84
2022/09/19 11:03:02;;;;;;;5.60;1.37;;;16.20;99.90;;;;;;5126758;27;20204;-86
2022/09/19 11:05:33;;;;;;;3.83;1.47;;;16.40;99.90;;;;;;5129811;27;20211;-85
2022/09/19 11:08:03;;;;;;;3.20;1.10;;;16.30;99.90;;;;;;5120887;27;20200;-87
2022/09/19 11:10:38;;;;;;;8.10;1.20;;;16.30;99.90;;;;;;5118229;27;20216;-87
2022/09/19 11:13:07;;;;;;;5.33;1.50;;;16.40;99.90;;;;;;5128706;27;20207;-86
2022/09/19 11:15:49;;;;;;;6.17;1.20;;;16.50;99.90;;;;;;5123232;27;20240;-86
2022/09/19 11:18:26;;;;;;;6.47;1.83;;;16.40;99.90;;;;;;5128003;27;20511;-87
2022/09/19 11:21:07;;;;;;;12.10;1.93;;;16.50;99.90;;;;;;5120529;27;20662;-87
2022/09/19 11:24:01;;;;;;;7.63;2.00;;;16.40;99.90;;;;;;5122904;27;20291;-88
2022/09/19 11:26:42;;;;;;;5.33;1.67;;;16.50;99.90;;;;;;5135576;27;20204;-87
2022/09/19 11:29:28;;;;;;;8.30;1.60;;;16.40;99.90;;;;;;5130839;27;20204;-86
2022/09/19 11:32:07;;;;;;;3.03;1.40;;;16.50;99.90;;;;;;5114273;28;20204;-87
2022/09/19 11:34:43;;;;;;;2.10;1.37;;;16.60;99.90;;;;;;5123014;27;20656;-86
2022/09/19 11:37:25;;;;;;;7.87;1.87;;;16.80;99.90;;;;;;5121936;27;20223;-89
2022/09/19 11:40:07;;;;;;;7.20;1.57;;;16.80;99.90;;;;;;5129246;27;20644;-87
2022/09/19 11:42:48;;;;;;;75.37;9.10;;;16.80;99.90;;;;;;5127906;27;20212;-87
2022/09/19 11:45:17;;;;;;;24.87;6.47;;;16.70;99.90;;;;;;5115864;27;20275;-87
2022/09/19 11:48:02;;;;;;;4.40;1.40;;;16.80;99.90;;;;;;5115131;28;20207;-87
2022/09/19 11:51:00;;;;;;;5.37;1.60;;;17.00;99.90;;;;;;5114091;28;20598;-87
2022/09/19 11:53:43;;;;;;;4.67;1.60;;;16.90;99.90;;;;;;5114505;28;20203;-87
2022/09/19 11:56:32;;;;;;;4.93;0.93;;;16.50;99.90;;;;;;5114398;28;20240;-87
2022/09/19 11:59:10;;;;;;;4.83;1.30;;;16.40;99.90;;;;;;5114271;27;20203;-87
2022/09/19 12:01:46;;;;;;;3.20;1.37;;;16.50;99.90;;;;;;5126537;27;20204;-88
2022/09/19 12:04:33;;;;;;;6.03;1.67;;;16.40;99.90;;;;;;5128402;27;20208;-88
2022/09/19 12:07:27;;;;;;;6.77;1.27;;;16.60;99.90;;;;;;5128442;27;20207;-88
2022/09/19 12:10:01;;;;;;;3.93;1.43;;;16.70;99.90;;;;;;5125613;27;20286;-88
2022/09/19 12:12:36;;;;;;;4.23;1.33;;;16.70;99.90;;;;;;5130566;27;20201;-89
2022/09/19 12:15:15;;;;;;;7.57;1.37;;;16.70;99.90;;;;;;5122401;27;20278;-88
2022/09/19 12:17:44;;;;;;;5.97;1.50;;;16.70;99.90;;;;;;5139493;27;20203;-91
2022/09/19 12:20:19;;;;;;;5.60;1.37;;;16.50;99.90;;;;;;5134568;27;20204;-86
2022/09/19 12:22:53;;;;;;;6.80;1.03;;;16.70;99.90;;;;;;5115518;27;20207;-88
2022/09/19 12:25:23;;;;;;;8.53;1.70;;;16.90;99.90;;;;;;5114302;28;20211;-86
2022/09/19 12:27:55;;;;;;;7.33;1.93;;;16.90;99.90;;;;;;5113291;28;20208;-86
2022/09/19 12:30:23;;;;;;;5.37;1.37;;;16.90;99.90;;;;;;5113532;28;20251;-87
2022/09/19 12:32:53;;;;;;;6.47;1.30;;;17.00;99.90;;;;;;5112093;28;20205;-86
2022/09/19 12:35:26;;;;;;;4.43;1.17;;;17.10;99.90;;;;;;5115321;28;20644;-86
2022/09/19 12:38:07;;;;;;;5.80;1.20;;;16.70;99.90;;;;;;5131390;27;20209;-86
2022/09/19 12:40:45;;;;;;;4.03;1.07;;;17.00;99.90;;;;;;5117929;28;20661;-86
2022/09/19 12:43:24;;;;;;;5.20;1.43;;;17.20;99.90;;;;;;5120092;27;20204;-87
2022/09/19 12:45:59;;;;;;;4.90;1.55;;;17.20;99.90;;;;;;5116432;28;20477;-88
2022/09/19 12:48:33;;;;;;;4.17;1.20;;;17.10;99.90;;;;;;5117439;28;20233;-85
2022/09/19 12:51:07;;;;;;;3.70;1.40;;;17.20;99.90;;;;;;5118354;27;20203;-87
2022/09/19 12:53:45;;;;;;;4.33;1.20;;;17.20;99.90;;;;;;5118139;28;20593;-87
2022/09/19 12:56:21;;;;;;;3.70;1.27;;;17.20;99.90;;;;;;5126091;27;20227;-88
2022/09/19 12:59:05;;;;;;;7.30;1.57;;;17.30;99.90;;;;;;5138268;27;20200;-87
2022/09/19 13:01:37;;;;;;;5.23;1.90;;;17.30;99.90;;;;;;5130212;27;20289;-87
2022/09/19 13:04:28;;;;;;;2.57;1.30;;;17.30;99.90;;;;;;5121335;27;20209;-88
2022/09/19 13:07:03;;;;;;;8.93;2.67;;;17.30;99.90;;;;;;5115777;28;20437;-89
2022/09/19 13:09:35;;;;;;;8.07;1.67;;;17.30;99.90;;;;;;5117521;28;20204;-83
2022/09/19 13:12:09;;;;;;;5.10;1.20;;;17.50;99.90;;;;;;5115895;28;20256;-83
2022/09/19 13:14:43;;;;;;;5.27;1.40;;;17.40;99.90;;;;;;5116495;28;20714;-82
2022/09/19 13:25:35;;;;;;;5.03;1.47;;;17.90;99.90;;;;;;5118143;28;20204;-88
2022/09/19 13:28:44;;;;;;;163.83;20.70;;;17.70;99.90;;;;;;5117858;28;20205;-88
2022/09/19 13:31:17;;;;;;;207.00;22.53;;;18.00;99.90;;;;;;5075154;28;20204;-86
2022/09/19 13:33:47;;;;;;;40.00;4.23;;;18.10;99.90;;;;;;5112933;28;20268;-86
2022/09/19 13:36:16;;;;;;;355.93;48.03;;;17.80;99.90;;;;;;5115853;28;20263;-89